sensor_id;sensor_type;location;lat;lon;timestamp;P1;durP1;ratioP1;P2;durP2;ratioP2
4407;SDS011;2217;48.460;7.934;2022-10-13T00:01:24;2.10;;;0.80;;
4407;SDS011;2217;48.460;7.934;2022-10-13T00:03:51;2.10;;;0.90;;
4407;SDS011;2217;48.460;7.934;2022-10-13T00:06:19;2.10;;;0.90;;
4407;SDS011;2217;48.460;7.934;2022-10-13T00:08:46;2.10;;;0.90;;
4407;SDS011;2217;48.460;7.934;2022-10-13T00:11:15;2.10;;;0.80;;
4407;SDS011;2217;48.460;7.934;2022-10-13T00:13:44;2.10;;;0.90;;
4407;SDS011;2217;48.460;7.934;2022-10-13T00:16:12;2.10;;;0.90;;
4407;SDS011;2217;48.460;7.934;2022-10-13T00:18:46;2.10;;;0.90;;
4407;SDS011;2217;48.460;7.934;2022-10-13T00:21:16;2.10;;;0.83;;
4407;SDS011;2217;48.460;7.934;2022-10-13T00:23:43;2.10;;;0.90;;
4407;SDS011;2217;48.460;7.934;2022-10-13T00:26:11;2.10;;;0.80;;
4407;SDS011;2217;48.460;7.934;2022-10-13T00:28:55;2.10;;;0.90;;
4407;SDS011;2217;48.460;7.934;2022-10-13T00:40:41;2.10;;;0.80;;
4407;SDS011;2217;48.460;7.934;2022-10-13T00:52:27;2.10;;;0.80;;
4407;SDS011;2217;48.460;7.934;2022-10-13T01:04:00;2.10;;;0.80;;
4407;SDS011;2217;48.460;7.934;2022-10-13T01:06:28;2.10;;;0.80;;
4407;SDS011;2217;48.460;7.934;2022-10-13T01:08:57;2.10;;;0.90;;
4407;SDS011;2217;48.460;7.934;2022-10-13T01:11:31;2.10;;;0.90;;
4407;SDS011;2217;48.460;7.934;2022-10-13T01:14:17;2.10;;;0.90;;
4407;SDS011;2217;48.460;7.934;2022-10-13T01:16:49;2.10;;;0.90;;
4407;SDS011;2217;48.460;7.934;2022-10-13T01:19:39;2.10;;;0.90;;
4407;SDS011;2217;48.460;7.934;2022-10-13T01:26:00;2.10;;;0.80;;
4407;SDS011;2217;48.460;7.934;2022-10-13T01:28:38;2.10;;;0.90;;
4407;SDS011;2217;48.460;7.934;2022-10-13T01:31:19;2.10;;;0.90;;
4407;SDS011;2217;48.460;7.934;2022-10-13T01:33:48;2.10;;;0.90;;
4407;SDS011;2217;48.460;7.934;2022-10-13T01:36:38;2.10;;;0.80;;
4407;SDS011;2217;48.460;7.934;2022-10-13T01:42:18;2.07;;;0.90;;
4407;SDS011;2217;48.460;7.934;2022-10-13T01:44:49;2.10;;;0.90;;
4407;SDS011;2217;48.460;7.934;2022-10-13T01:47:18;2.10;;;0.90;;
4407;SDS011;2217;48.460;7.934;2022-10-13T01:50:02;2.10;;;1.00;;
4407;SDS011;2217;48.460;7.934;2022-10-13T01:52:31;2.10;;;0.90;;
4407;SDS011;2217;48.460;7.934;2022-10-13T01:55:03;2.10;;;0.90;;
4407;SDS011;2217;48.460;7.934;2022-10-13T01:57:32;2.10;;;0.90;;
4407;SDS011;2217;48.460;7.934;2022-10-13T02:03:16;2.10;;;1.00;;
4407;SDS011;2217;48.460;7.934;2022-10-13T02:53:16;2.00;;;0.90;;
4407;SDS011;2217;48.460;7.934;2022-10-13T02:55:43;2.00;;;0.90;;
4407;SDS011;2217;48.460;7.934;2022-10-13T02:58:10;2.00;;;0.90;;
4407;SDS011;2217;48.460;7.934;2022-10-13T03:00:37;2.03;;;1.00;;
4407;SDS011;2217;48.460;7.934;2022-10-13T03:03:04;2.03;;;0.90;;
4407;SDS011;2217;48.460;7.934;2022-10-13T03:05:32;2.00;;;0.90;;
4407;SDS011;2217;48.460;7.934;2022-10-13T03:07:59;2.00;;;0.90;;
4407;SDS011;2217;48.460;7.934;2022-10-13T03:10:27;2.00;;;0.90;;
4407;SDS011;2217;48.460;7.934;2022-10-13T03:12:56;2.00;;;0.90;;
4407;SDS011;2217;48.460;7.934;2022-10-13T03:15:23;2.00;;;0.90;;
4407;SDS011;2217;48.460;7.934;2022-10-13T03:17:50;2.10;;;1.00;;
4407;SDS011;2217;48.460;7.934;2022-10-13T03:20:18;2.00;;;0.90;;
4407;SDS011;2217;48.460;7.934;2022-10-13T03:22:45;2.00;;;0.90;;
4407;SDS011;2217;48.460;7.934;2022-10-13T03:25:12;2.00;;;0.90;;
4407;SDS011;2217;48.460;7.934;2022-10-13T03:27:40;2.00;;;0.90;;
4407;SDS011;2217;48.460;7.934;2022-10-13T03:30:08;2.00;;;1.00;;
4407;SDS011;2217;48.460;7.934;2022-10-13T03:32:35;2.03;;;0.90;;
4407;SDS011;2217;48.460;7.934;2022-10-13T03:35:03;2.00;;;1.00;;
4407;SDS011;2217;48.460;7.934;2022-10-13T03:37:30;2.00;;;0.90;;
4407;SDS011;2217;48.460;7.934;2022-10-13T03:39:58;2.03;;;0.97;;
4407;SDS011;2217;48.460;7.934;2022-10-13T03:42:25;2.00;;;0.90;;
4407;SDS011;2217;48.460;7.934;2022-10-13T03:44:53;2.00;;;0.90;;
4407;SDS011;2217;48.460;7.934;2022-10-13T03:47:20;2.00;;;0.90;;
4407;SDS011;2217;48.460;7.934;2022-10-13T03:49:47;2.00;;;1.00;;
4407;SDS011;2217;48.460;7.934;2022-10-13T03:52:14;2.00;;;0.90;;
4407;SDS011;2217;48.460;7.934;2022-10-13T03:54:42;2.00;;;0.90;;
4407;SDS011;2217;48.460;7.934;2022-10-13T03:57:09;2.10;;;1.00;;
4407;SDS011;2217;48.460;7.934;2022-10-13T03:59:37;2.00;;;0.90;;
4407;SDS011;2217;48.460;7.934;2022-10-13T04:02:07;2.00;;;0.90;;
4407;SDS011;2217;48.460;7.934;2022-10-13T04:04:35;2.00;;;1.00;;
4407;SDS011;2217;48.460;7.934;2022-10-13T04:07:02;2.07;;;0.90;;
4407;SDS011;2217;48.460;7.934;2022-10-13T04:09:30;2.00;;;0.90;;
4407;SDS011;2217;48.460;7.934;2022-10-13T04:11:57;2.00;;;0.90;;
4407;SDS011;2217;48.460;7.934;2022-10-13T04:14:24;2.10;;;1.00;;
4407;SDS011;2217;48.460;7.934;2022-10-13T04:16:54;2.00;;;0.90;;
4407;SDS011;2217;48.460;7.934;2022-10-13T04:19:24;2.00;;;0.90;;
4407;SDS011;2217;48.460;7.934;2022-10-13T04:21:51;2.00;;;0.90;;
4407;SDS011;2217;48.460;7.934;2022-10-13T04:24:18;2.00;;;0.90;;
4407;SDS011;2217;48.460;7.934;2022-10-13T04:26:45;2.03;;;0.97;;
4407;SDS011;2217;48.460;7.934;2022-10-13T04:29:12;2.00;;;1.00;;
4407;SDS011;2217;48.460;7.934;2022-10-13T04:31:40;2.03;;;1.00;;
4407;SDS011;2217;48.460;7.934;2022-10-13T04:34:07;2.03;;;1.00;;
4407;SDS011;2217;48.460;7.934;2022-10-13T04:36:36;2.00;;;0.90;;
4407;SDS011;2217;48.460;7.934;2022-10-13T04:39:03;2.07;;;1.00;;
4407;SDS011;2217;48.460;7.934;2022-10-13T04:41:30;2.00;;;0.90;;
4407;SDS011;2217;48.460;7.934;2022-10-13T04:43:58;2.00;;;0.90;;
4407;SDS011;2217;48.460;7.934;2022-10-13T04:46:26;2.00;;;0.90;;
4407;SDS011;2217;48.460;7.934;2022-10-13T04:48:54;2.00;;;0.90;;
4407;SDS011;2217;48.460;7.934;2022-10-13T04:51:23;2.00;;;0.90;;
4407;SDS011;2217;48.460;7.934;2022-10-13T04:53:54;2.00;;;0.90;;
4407;SDS011;2217;48.460;7.934;2022-10-13T04:56:21;2.00;;;0.90;;
4407;SDS011;2217;48.460;7.934;2022-10-13T04:58:48;2.00;;;0.80;;
4407;SDS011;2217;48.460;7.934;2022-10-13T05:01:16;2.00;;;0.80;;
4407;SDS011;2217;48.460;7.934;2022-10-13T05:03:44;2.03;;;1.00;;
4407;SDS011;2217;48.460;7.934;2022-10-13T05:06:14;2.00;;;0.90;;
4407;SDS011;2217;48.460;7.934;2022-10-13T05:08:42;2.00;;;0.90;;
4407;SDS011;2217;48.460;7.934;2022-10-13T05:11:10;2.00;;;0.90;;
4407;SDS011;2217;48.460;7.934;2022-10-13T05:13:37;2.00;;;0.90;;
4407;SDS011;2217;48.460;7.934;2022-10-13T05:16:05;2.00;;;0.90;;
4407;SDS011;2217;48.460;7.934;2022-10-13T05:18:33;2.00;;;0.90;;
4407;SDS011;2217;48.460;7.934;2022-10-13T05:21:09;2.00;;;0.90;;
4407;SDS011;2217;48.460;7.934;2022-10-13T05:23:37;2.00;;;0.90;;
4407;SDS011;2217;48.460;7.934;2022-10-13T05:26:06;2.00;;;0.90;;
4407;SDS011;2217;48.460;7.934;2022-10-13T05:28:35;2.00;;;0.90;;
4407;SDS011;2217;48.460;7.934;2022-10-13T05:31:12;2.00;;;0.90;;
4407;SDS011;2217;48.460;7.934;2022-10-13T05:33:40;2.00;;;0.90;;
4407;SDS011;2217;48.460;7.934;2022-10-13T05:36:09;2.00;;;0.90;;
4407;SDS011;2217;48.460;7.934;2022-10-13T05:38:36;2.00;;;0.90;;
4407;SDS011;2217;48.460;7.934;2022-10-13T05:41:04;2.00;;;0.93;;
4407;SDS011;2217;48.460;7.934;2022-10-13T05:43:31;2.00;;;0.90;;
4407;SDS011;2217;48.460;7.934;2022-10-13T05:46:00;2.00;;;0.90;;
4407;SDS011;2217;48.460;7.934;2022-10-13T05:48:27;2.00;;;0.80;;
4407;SDS011;2217;48.460;7.934;2022-10-13T05:50:55;2.00;;;0.90;;
4407;SDS011;2217;48.460;7.934;2022-10-13T05:53:23;2.00;;;0.90;;
4407;SDS011;2217;48.460;7.934;2022-10-13T05:55:51;2.00;;;0.80;;
4407;SDS011;2217;48.460;7.934;2022-10-13T05:58:19;2.00;;;0.80;;
4407;SDS011;2217;48.460;7.934;2022-10-13T06:00:46;2.00;;;0.90;;
4407;SDS011;2217;48.460;7.934;2022-10-13T06:03:15;2.00;;;0.90;;
4407;SDS011;2217;48.460;7.934;2022-10-13T06:05:43;2.00;;;0.90;;
4407;SDS011;2217;48.460;7.934;2022-10-13T06:08:11;2.00;;;0.90;;
4407;SDS011;2217;48.460;7.934;2022-10-13T06:10:39;2.00;;;0.80;;
4407;SDS011;2217;48.460;7.934;2022-10-13T06:13:06;2.00;;;0.90;;
4407;SDS011;2217;48.460;7.934;2022-10-13T06:15:33;2.00;;;0.90;;
4407;SDS011;2217;48.460;7.934;2022-10-13T06:18:01;2.00;;;0.80;;
4407;SDS011;2217;48.460;7.934;2022-10-13T06:20:29;2.00;;;0.90;;
4407;SDS011;2217;48.460;7.934;2022-10-13T06:22:56;2.00;;;0.90;;
4407;SDS011;2217;48.460;7.934;2022-10-13T06:25:24;2.00;;;0.90;;
4407;SDS011;2217;48.460;7.934;2022-10-13T06:27:51;2.03;;;1.00;;
4407;SDS011;2217;48.460;7.934;2022-10-13T06:30:18;2.00;;;0.90;;
4407;SDS011;2217;48.460;7.934;2022-10-13T06:32:45;2.00;;;1.00;;
4407;SDS011;2217;48.460;7.934;2022-10-13T06:35:12;2.00;;;0.80;;
4407;SDS011;2217;48.460;7.934;2022-10-13T06:37:41;2.00;;;0.90;;
4407;SDS011;2217;48.460;7.934;2022-10-13T06:40:10;2.00;;;0.90;;
4407;SDS011;2217;48.460;7.934;2022-10-13T06:42:37;2.00;;;0.90;;
4407;SDS011;2217;48.460;7.934;2022-10-13T06:45:05;2.00;;;0.90;;
4407;SDS011;2217;48.460;7.934;2022-10-13T06:47:32;2.00;;;0.90;;
4407;SDS011;2217;48.460;7.934;2022-10-13T06:49:59;2.00;;;0.87;;
4407;SDS011;2217;48.460;7.934;2022-10-13T06:52:26;2.00;;;0.80;;
4407;SDS011;2217;48.460;7.934;2022-10-13T06:54:55;2.00;;;0.90;;
4407;SDS011;2217;48.460;7.934;2022-10-13T06:57:22;2.00;;;0.90;;
4407;SDS011;2217;48.460;7.934;2022-10-13T06:59:50;2.00;;;0.90;;
4407;SDS011;2217;48.460;7.934;2022-10-13T07:02:18;2.07;;;0.90;;
4407;SDS011;2217;48.460;7.934;2022-10-13T07:04:45;2.03;;;0.90;;
4407;SDS011;2217;48.460;7.934;2022-10-13T07:07:12;2.07;;;0.90;;
4407;SDS011;2217;48.460;7.934;2022-10-13T07:09:40;2.00;;;0.90;;
4407;SDS011;2217;48.460;7.934;2022-10-13T07:12:08;2.10;;;0.90;;
4407;SDS011;2217;48.460;7.934;2022-10-13T07:14:35;2.00;;;0.80;;
4407;SDS011;2217;48.460;7.934;2022-10-13T07:17:02;2.10;;;0.90;;
4407;SDS011;2217;48.460;7.934;2022-10-13T07:19:30;2.10;;;0.90;;
4407;SDS011;2217;48.460;7.934;2022-10-13T07:21:57;2.10;;;0.90;;
4407;SDS011;2217;48.460;7.934;2022-10-13T07:24:24;2.10;;;0.90;;
4407;SDS011;2217;48.460;7.934;2022-10-13T07:26:51;2.10;;;0.80;;
4407;SDS011;2217;48.460;7.934;2022-10-13T07:29:20;2.10;;;0.90;;
4407;SDS011;2217;48.460;7.934;2022-10-13T07:31:47;2.10;;;0.90;;
4407;SDS011;2217;48.460;7.934;2022-10-13T07:34:15;2.10;;;0.90;;
4407;SDS011;2217;48.460;7.934;2022-10-13T07:36:42;2.10;;;0.90;;
4407;SDS011;2217;48.460;7.934;2022-10-13T07:39:09;2.10;;;0.90;;
4407;SDS011;2217;48.460;7.934;2022-10-13T07:41:36;2.10;;;0.90;;
4407;SDS011;2217;48.460;7.934;2022-10-13T07:44:03;2.10;;;0.90;;
4407;SDS011;2217;48.460;7.934;2022-10-13T07:46:32;2.10;;;0.90;;
4407;SDS011;2217;48.460;7.934;2022-10-13T07:48:59;2.10;;;0.90;;
4407;SDS011;2217;48.460;7.934;2022-10-13T07:51:26;2.10;;;0.80;;
4407;SDS011;2217;48.460;7.934;2022-10-13T07:53:53;2.10;;;0.80;;
4407;SDS011;2217;48.460;7.934;2022-10-13T07:56:20;2.10;;;0.83;;
4407;SDS011;2217;48.460;7.934;2022-10-13T07:58:48;2.10;;;0.80;;
4407;SDS011;2217;48.460;7.934;2022-10-13T08:01:15;2.10;;;0.80;;
4407;SDS011;2217;48.460;7.934;2022-10-13T08:03:44;2.20;;;0.90;;
4407;SDS011;2217;48.460;7.934;2022-10-13T08:06:11;2.20;;;0.80;;
4407;SDS011;2217;48.460;7.934;2022-10-13T08:08:38;2.20;;;0.87;;
4407;SDS011;2217;48.460;7.934;2022-10-13T08:11:06;2.20;;;0.80;;
4407;SDS011;2217;48.460;7.934;2022-10-13T08:13:33;2.20;;;0.80;;
4407;SDS011;2217;48.460;7.934;2022-10-13T08:16:01;2.20;;;0.90;;
4407;SDS011;2217;48.460;7.934;2022-10-13T08:18:28;2.20;;;0.80;;
4407;SDS011;2217;48.460;7.934;2022-10-13T08:20:59;2.20;;;0.90;;
4407;SDS011;2217;48.460;7.934;2022-10-13T08:23:27;2.20;;;0.80;;
4407;SDS011;2217;48.460;7.934;2022-10-13T08:25:54;2.20;;;0.80;;
4407;SDS011;2217;48.460;7.934;2022-10-13T08:28:22;2.20;;;0.80;;
4407;SDS011;2217;48.460;7.934;2022-10-13T08:30:49;2.20;;;0.90;;
4407;SDS011;2217;48.460;7.934;2022-10-13T08:33:17;2.20;;;0.80;;
4407;SDS011;2217;48.460;7.934;2022-10-13T08:35:44;2.20;;;0.80;;
4407;SDS011;2217;48.460;7.934;2022-10-13T08:38:13;2.30;;;0.90;;
4407;SDS011;2217;48.460;7.934;2022-10-13T08:40:40;2.30;;;0.80;;
4407;SDS011;2217;48.460;7.934;2022-10-13T08:43:11;2.30;;;0.80;;
4407;SDS011;2217;48.460;7.934;2022-10-13T08:45:40;2.30;;;0.90;;
4407;SDS011;2217;48.460;7.934;2022-10-13T08:48:09;2.30;;;0.80;;
4407;SDS011;2217;48.460;7.934;2022-10-13T08:50:38;2.33;;;0.80;;
4407;SDS011;2217;48.460;7.934;2022-10-13T08:53:10;2.37;;;0.80;;
4407;SDS011;2217;48.460;7.934;2022-10-13T08:55:40;2.37;;;0.80;;
4407;SDS011;2217;48.460;7.934;2022-10-13T08:58:10;2.40;;;0.80;;
4407;SDS011;2217;48.460;7.934;2022-10-13T09:00:38;2.40;;;0.80;;
4407;SDS011;2217;48.460;7.934;2022-10-13T09:03:10;2.40;;;0.90;;
4407;SDS011;2217;48.460;7.934;2022-10-13T09:05:44;2.40;;;0.80;;
4407;SDS011;2217;48.460;7.934;2022-10-13T09:08:17;2.40;;;0.80;;
4407;SDS011;2217;48.460;7.934;2022-10-13T09:10:47;2.40;;;0.80;;
4407;SDS011;2217;48.460;7.934;2022-10-13T09:13:15;2.40;;;0.80;;
4407;SDS011;2217;48.460;7.934;2022-10-13T09:15:42;2.40;;;0.80;;
4407;SDS011;2217;48.460;7.934;2022-10-13T09:18:10;2.40;;;0.80;;
4407;SDS011;2217;48.460;7.934;2022-10-13T09:20:38;2.40;;;0.80;;
4407;SDS011;2217;48.460;7.934;2022-10-13T09:23:06;2.40;;;0.80;;
4407;SDS011;2217;48.460;7.934;2022-10-13T09:25:38;2.40;;;0.80;;
4407;SDS011;2217;48.460;7.934;2022-10-13T09:28:12;2.40;;;0.80;;
4407;SDS011;2217;48.460;7.934;2022-10-13T09:30:41;2.40;;;0.80;;
4407;SDS011;2217;48.460;7.934;2022-10-13T09:33:19;2.40;;;0.80;;
4407;SDS011;2217;48.460;7.934;2022-10-13T09:35:47;2.40;;;0.80;;
4407;SDS011;2217;48.460;7.934;2022-10-13T09:38:15;2.40;;;0.80;;
4407;SDS011;2217;48.460;7.934;2022-10-13T09:40:54;2.40;;;0.90;;
4407;SDS011;2217;48.460;7.934;2022-10-13T09:43:27;2.40;;;0.80;;
4407;SDS011;2217;48.460;7.934;2022-10-13T09:45:54;2.40;;;0.80;;
4407;SDS011;2217;48.460;7.934;2022-10-13T09:48:22;2.40;;;0.90;;
4407;SDS011;2217;48.460;7.934;2022-10-13T09:50:52;2.40;;;0.80;;
4407;SDS011;2217;48.460;7.934;2022-10-13T09:53:21;2.40;;;0.80;;
4407;SDS011;2217;48.460;7.934;2022-10-13T09:55:50;2.40;;;0.80;;
4407;SDS011;2217;48.460;7.934;2022-10-13T09:58:34;2.40;;;0.80;;
4407;SDS011;2217;48.460;7.934;2022-10-13T10:01:01;2.40;;;0.80;;
4407;SDS011;2217;48.460;7.934;2022-10-13T10:03:30;2.40;;;0.80;;
4407;SDS011;2217;48.460;7.934;2022-10-13T10:05:58;2.40;;;0.80;;
4407;SDS011;2217;48.460;7.934;2022-10-13T10:08:27;2.40;;;0.80;;
4407;SDS011;2217;48.460;7.934;2022-10-13T10:10:58;2.40;;;0.80;;
4407;SDS011;2217;48.460;7.934;2022-10-13T10:13:26;2.40;;;0.80;;
4407;SDS011;2217;48.460;7.934;2022-10-13T10:15:55;2.40;;;0.87;;
4407;SDS011;2217;48.460;7.934;2022-10-13T10:18:27;2.43;;;0.80;;
4407;SDS011;2217;48.460;7.934;2022-10-13T10:20:59;2.50;;;0.80;;
4407;SDS011;2217;48.460;7.934;2022-10-13T10:23:28;2.50;;;0.80;;
4407;SDS011;2217;48.460;7.934;2022-10-13T10:25:58;2.50;;;0.80;;
4407;SDS011;2217;48.460;7.934;2022-10-13T10:28:33;2.50;;;0.80;;
4407;SDS011;2217;48.460;7.934;2022-10-13T10:31:09;2.53;;;0.80;;
4407;SDS011;2217;48.460;7.934;2022-10-13T10:33:42;2.50;;;0.80;;
4407;SDS011;2217;48.460;7.934;2022-10-13T10:36:12;2.60;;;0.83;;
4407;SDS011;2217;48.460;7.934;2022-10-13T10:38:43;2.57;;;0.80;;
4407;SDS011;2217;48.460;7.934;2022-10-13T10:41:11;2.60;;;0.90;;
4407;SDS011;2217;48.460;7.934;2022-10-13T10:43:43;2.60;;;0.80;;
4407;SDS011;2217;48.460;7.934;2022-10-13T10:46:15;2.60;;;0.80;;
4407;SDS011;2217;48.460;7.934;2022-10-13T10:48:43;2.60;;;0.90;;
4407;SDS011;2217;48.460;7.934;2022-10-13T10:51:11;2.60;;;0.80;;
4407;SDS011;2217;48.460;7.934;2022-10-13T10:53:41;2.70;;;0.80;;
4407;SDS011;2217;48.460;7.934;2022-10-13T10:56:13;2.70;;;0.80;;
4407;SDS011;2217;48.460;7.934;2022-10-13T10:58:43;2.70;;;0.80;;
4407;SDS011;2217;48.460;7.934;2022-10-13T11:01:20;2.70;;;0.80;;
4407;SDS011;2217;48.460;7.934;2022-10-13T11:03:53;2.70;;;0.80;;
4407;SDS011;2217;48.460;7.934;2022-10-13T11:06:24;2.70;;;0.80;;
4407;SDS011;2217;48.460;7.934;2022-10-13T11:08:51;2.70;;;0.80;;
4407;SDS011;2217;48.460;7.934;2022-10-13T11:11:38;2.80;;;0.80;;
4407;SDS011;2217;48.460;7.934;2022-10-13T11:14:19;2.80;;;0.80;;
4407;SDS011;2217;48.460;7.934;2022-10-13T11:17:00;2.80;;;0.80;;
4407;SDS011;2217;48.460;7.934;2022-10-13T11:19:28;2.80;;;0.80;;
4407;SDS011;2217;48.460;7.934;2022-10-13T11:24:44;2.80;;;0.90;;
4407;SDS011;2217;48.460;7.934;2022-10-13T11:27:22;2.90;;;0.90;;
4407;SDS011;2217;48.460;7.934;2022-10-13T11:29:50;2.90;;;0.90;;
4407;SDS011;2217;48.460;7.934;2022-10-13T11:35:17;2.90;;;0.90;;
4407;SDS011;2217;48.460;7.934;2022-10-13T11:37:47;2.90;;;0.80;;
4407;SDS011;2217;48.460;7.934;2022-10-13T11:40:15;2.90;;;0.80;;
4407;SDS011;2217;48.460;7.934;2022-10-13T11:42:53;2.90;;;0.90;;
4407;SDS011;2217;48.460;7.934;2022-10-13T11:51:01;2.90;;;0.90;;
4407;SDS011;2217;48.460;7.934;2022-10-13T11:53:32;2.90;;;0.80;;
4407;SDS011;2217;48.460;7.934;2022-10-13T11:56:00;2.90;;;0.80;;
4407;SDS011;2217;48.460;7.934;2022-10-13T11:58:28;2.90;;;0.80;;
4407;SDS011;2217;48.460;7.934;2022-10-13T12:00:56;2.87;;;0.80;;
4407;SDS011;2217;48.460;7.934;2022-10-13T12:03:25;2.90;;;0.80;;
4407;SDS011;2217;48.460;7.934;2022-10-13T12:05:53;2.80;;;0.83;;
4407;SDS011;2217;48.460;7.934;2022-10-13T12:08:22;2.90;;;0.87;;
4407;SDS011;2217;48.460;7.934;2022-10-13T12:10:50;2.87;;;0.80;;
4407;SDS011;2217;48.460;7.934;2022-10-13T12:13:21;2.80;;;0.80;;
4407;SDS011;2217;48.460;7.934;2022-10-13T12:15:48;2.90;;;0.80;;
4407;SDS011;2217;48.460;7.934;2022-10-13T12:18:24;2.83;;;0.90;;
4407;SDS011;2217;48.460;7.934;2022-10-13T12:20:52;2.87;;;0.80;;
4407;SDS011;2217;48.460;7.934;2022-10-13T12:23:19;2.83;;;0.80;;
4407;SDS011;2217;48.460;7.934;2022-10-13T12:25:48;2.87;;;0.80;;
4407;SDS011;2217;48.460;7.934;2022-10-13T12:28:21;2.90;;;0.80;;
4407;SDS011;2217;48.460;7.934;2022-10-13T12:30:50;2.90;;;0.90;;
4407;SDS011;2217;48.460;7.934;2022-10-13T12:33:26;2.87;;;0.80;;
4407;SDS011;2217;48.460;7.934;2022-10-13T12:35:54;2.90;;;0.90;;
4407;SDS011;2217;48.460;7.934;2022-10-13T12:38:22;2.83;;;0.90;;
4407;SDS011;2217;48.460;7.934;2022-10-13T12:40:51;2.90;;;0.80;;
4407;SDS011;2217;48.460;7.934;2022-10-13T12:43:21;2.83;;;0.80;;
4407;SDS011;2217;48.460;7.934;2022-10-13T12:45:50;2.87;;;0.80;;
4407;SDS011;2217;48.460;7.934;2022-10-13T12:48:30;2.87;;;0.90;;
4407;SDS011;2217;48.460;7.934;2022-10-13T12:51:06;2.90;;;0.80;;
4407;SDS011;2217;48.460;7.934;2022-10-13T12:53:33;2.90;;;0.90;;
4407;SDS011;2217;48.460;7.934;2022-10-13T12:56:02;2.90;;;0.83;;
4407;SDS011;2217;48.460;7.934;2022-10-13T12:58:31;2.90;;;0.80;;
4407;SDS011;2217;48.460;7.934;2022-10-13T13:01:06;2.87;;;0.80;;
4407;SDS011;2217;48.460;7.934;2022-10-13T13:03:34;2.83;;;0.80;;
4407;SDS011;2217;48.460;7.934;2022-10-13T13:06:06;2.90;;;0.80;;
4407;SDS011;2217;48.460;7.934;2022-10-13T13:08:34;2.87;;;0.80;;
4407;SDS011;2217;48.460;7.934;2022-10-13T13:11:03;2.90;;;0.90;;
4407;SDS011;2217;48.460;7.934;2022-10-13T13:13:31;2.87;;;0.80;;
4407;SDS011;2217;48.460;7.934;2022-10-13T13:16:11;2.87;;;0.80;;
4407;SDS011;2217;48.460;7.934;2022-10-13T13:18:39;2.90;;;0.83;;
4407;SDS011;2217;48.460;7.934;2022-10-13T13:21:07;2.90;;;0.80;;
4407;SDS011;2217;48.460;7.934;2022-10-13T13:23:34;2.90;;;0.80;;
4407;SDS011;2217;48.460;7.934;2022-10-13T13:26:05;2.83;;;0.80;;
4407;SDS011;2217;48.460;7.934;2022-10-13T13:28:36;2.87;;;0.80;;
4407;SDS011;2217;48.460;7.934;2022-10-13T13:31:03;2.87;;;0.80;;
4407;SDS011;2217;48.460;7.934;2022-10-13T13:33:30;2.87;;;0.80;;
4407;SDS011;2217;48.460;7.934;2022-10-13T13:35:57;2.90;;;0.90;;
4407;SDS011;2217;48.460;7.934;2022-10-13T13:38:25;2.80;;;0.90;;
4407;SDS011;2217;48.460;7.934;2022-10-13T13:40:52;2.90;;;0.80;;
4407;SDS011;2217;48.460;7.934;2022-10-13T13:43:20;2.90;;;0.90;;
4407;SDS011;2217;48.460;7.934;2022-10-13T13:45:47;2.80;;;0.80;;
4407;SDS011;2217;48.460;7.934;2022-10-13T13:48:15;2.90;;;0.80;;
4407;SDS011;2217;48.460;7.934;2022-10-13T13:50:42;2.90;;;0.90;;
4407;SDS011;2217;48.460;7.934;2022-10-13T13:53:09;2.87;;;0.80;;
4407;SDS011;2217;48.460;7.934;2022-10-13T13:55:36;2.90;;;0.80;;
4407;SDS011;2217;48.460;7.934;2022-10-13T13:58:03;2.83;;;0.80;;
4407;SDS011;2217;48.460;7.934;2022-10-13T14:00:32;2.87;;;0.80;;
4407;SDS011;2217;48.460;7.934;2022-10-13T14:03:00;2.90;;;0.80;;
4407;SDS011;2217;48.460;7.934;2022-10-13T14:05:27;2.90;;;0.80;;
4407;SDS011;2217;48.460;7.934;2022-10-13T14:07:55;2.90;;;0.80;;
4407;SDS011;2217;48.460;7.934;2022-10-13T14:10:22;2.87;;;0.90;;
4407;SDS011;2217;48.460;7.934;2022-10-13T14:12:49;2.87;;;0.80;;
4407;SDS011;2217;48.460;7.934;2022-10-13T14:15:17;2.90;;;0.83;;
4407;SDS011;2217;48.460;7.934;2022-10-13T14:17:45;2.83;;;0.90;;
4407;SDS011;2217;48.460;7.934;2022-10-13T14:20:13;2.90;;;0.90;;
4407;SDS011;2217;48.460;7.934;2022-10-13T14:22:40;2.90;;;0.90;;
4407;SDS011;2217;48.460;7.934;2022-10-13T14:25:07;2.90;;;0.80;;
4407;SDS011;2217;48.460;7.934;2022-10-13T14:27:35;2.90;;;0.90;;
4407;SDS011;2217;48.460;7.934;2022-10-13T14:30:02;2.90;;;0.87;;
4407;SDS011;2217;48.460;7.934;2022-10-13T14:32:29;2.87;;;0.80;;
4407;SDS011;2217;48.460;7.934;2022-10-13T14:34:58;2.87;;;0.80;;
4407;SDS011;2217;48.460;7.934;2022-10-13T14:37:28;2.90;;;0.90;;
4407;SDS011;2217;48.460;7.934;2022-10-13T14:39:55;2.90;;;0.80;;
4407;SDS011;2217;48.460;7.934;2022-10-13T14:42:22;2.90;;;0.90;;
4407;SDS011;2217;48.460;7.934;2022-10-13T14:44:50;2.90;;;0.80;;
4407;SDS011;2217;48.460;7.934;2022-10-13T14:47:17;2.87;;;0.90;;
4407;SDS011;2217;48.460;7.934;2022-10-13T14:49:45;2.83;;;0.80;;
4407;SDS011;2217;48.460;7.934;2022-10-13T14:52:13;2.87;;;0.90;;
4407;SDS011;2217;48.460;7.934;2022-10-13T14:54:42;2.87;;;0.80;;
4407;SDS011;2217;48.460;7.934;2022-10-13T14:57:09;2.87;;;0.80;;
4407;SDS011;2217;48.460;7.934;2022-10-13T14:59:39;2.87;;;0.90;;
4407;SDS011;2217;48.460;7.934;2022-10-13T15:02:07;2.83;;;0.80;;
4407;SDS011;2217;48.460;7.934;2022-10-13T15:04:34;2.83;;;0.80;;
4407;SDS011;2217;48.460;7.934;2022-10-13T15:07:02;2.90;;;0.80;;
4407;SDS011;2217;48.460;7.934;2022-10-13T15:09:30;2.80;;;0.80;;
4407;SDS011;2217;48.460;7.934;2022-10-13T15:11:58;2.80;;;0.90;;
4407;SDS011;2217;48.460;7.934;2022-10-13T15:14:26;2.87;;;0.90;;
4407;SDS011;2217;48.460;7.934;2022-10-13T15:16:53;2.80;;;0.80;;
4407;SDS011;2217;48.460;7.934;2022-10-13T15:19:20;2.80;;;0.80;;
4407;SDS011;2217;48.460;7.934;2022-10-13T15:21:47;2.90;;;0.80;;
4407;SDS011;2217;48.460;7.934;2022-10-13T15:24:15;2.83;;;0.80;;
4407;SDS011;2217;48.460;7.934;2022-10-13T15:26:44;2.90;;;0.90;;
4407;SDS011;2217;48.460;7.934;2022-10-13T15:29:11;2.80;;;0.90;;
4407;SDS011;2217;48.460;7.934;2022-10-13T15:31:38;2.80;;;0.80;;
4407;SDS011;2217;48.460;7.934;2022-10-13T15:34:05;2.80;;;0.80;;
4407;SDS011;2217;48.460;7.934;2022-10-13T15:36:32;2.80;;;0.80;;
4407;SDS011;2217;48.460;7.934;2022-10-13T15:38:59;2.80;;;0.80;;
4407;SDS011;2217;48.460;7.934;2022-10-13T15:41:26;2.80;;;0.80;;
4407;SDS011;2217;48.460;7.934;2022-10-13T15:43:55;2.80;;;0.80;;
4407;SDS011;2217;48.460;7.934;2022-10-13T15:46:22;2.80;;;0.80;;
4407;SDS011;2217;48.460;7.934;2022-10-13T15:48:50;2.80;;;0.80;;
4407;SDS011;2217;48.460;7.934;2022-10-13T15:51:20;2.70;;;0.90;;
4407;SDS011;2217;48.460;7.934;2022-10-13T15:53:48;2.80;;;0.80;;
4407;SDS011;2217;48.460;7.934;2022-10-13T15:56:15;2.73;;;0.80;;
4407;SDS011;2217;48.460;7.934;2022-10-13T15:58:43;2.73;;;0.80;;
4407;SDS011;2217;48.460;7.934;2022-10-13T16:01:12;2.70;;;0.80;;
4407;SDS011;2217;48.460;7.934;2022-10-13T16:03:39;2.70;;;0.80;;
4407;SDS011;2217;48.460;7.934;2022-10-13T16:06:07;2.70;;;0.80;;
4407;SDS011;2217;48.460;7.934;2022-10-13T16:08:35;2.70;;;0.80;;
4407;SDS011;2217;48.460;7.934;2022-10-13T16:11:06;2.70;;;0.80;;
4407;SDS011;2217;48.460;7.934;2022-10-13T16:13:35;2.67;;;0.87;;
4407;SDS011;2217;48.460;7.934;2022-10-13T16:16:02;2.60;;;0.80;;
4407;SDS011;2217;48.460;7.934;2022-10-13T16:18:32;2.60;;;0.80;;
4407;SDS011;2217;48.460;7.934;2022-10-13T16:21:05;2.60;;;0.80;;
4407;SDS011;2217;48.460;7.934;2022-10-13T16:23:33;2.57;;;0.80;;
4407;SDS011;2217;48.460;7.934;2022-10-13T16:26:00;2.60;;;0.80;;
4407;SDS011;2217;48.460;7.934;2022-10-13T16:28:27;2.60;;;0.80;;
4407;SDS011;2217;48.460;7.934;2022-10-13T16:30:54;2.60;;;0.80;;
4407;SDS011;2217;48.460;7.934;2022-10-13T16:33:21;2.60;;;0.80;;
4407;SDS011;2217;48.460;7.934;2022-10-13T16:35:50;2.60;;;0.80;;
4407;SDS011;2217;48.460;7.934;2022-10-13T16:38:17;2.60;;;0.80;;
4407;SDS011;2217;48.460;7.934;2022-10-13T16:40:44;2.50;;;0.80;;
4407;SDS011;2217;48.460;7.934;2022-10-13T16:43:11;2.60;;;0.90;;
4407;SDS011;2217;48.460;7.934;2022-10-13T16:45:38;2.53;;;0.80;;
4407;SDS011;2217;48.460;7.934;2022-10-13T16:48:06;2.50;;;0.80;;
4407;SDS011;2217;48.460;7.934;2022-10-13T16:50:33;2.50;;;0.80;;
4407;SDS011;2217;48.460;7.934;2022-10-13T16:53:01;2.50;;;0.90;;
4407;SDS011;2217;48.460;7.934;2022-10-13T16:55:28;2.50;;;0.80;;
4407;SDS011;2217;48.460;7.934;2022-10-13T16:57:55;2.50;;;0.80;;
4407;SDS011;2217;48.460;7.934;2022-10-13T17:00:22;2.47;;;0.80;;
4407;SDS011;2217;48.460;7.934;2022-10-13T17:02:50;2.47;;;0.87;;